sensor_id;sensor_type;location;lat;lon;timestamp;temperature;humidity
33077;DHT22;38790;51.964;5.924;2022-11-15T00:00:48;6.80;99.90
33077;DHT22;38790;51.964;5.924;2022-11-15T00:03:21;6.80;99.90
33077;DHT22;38790;51.964;5.924;2022-11-15T00:05:48;6.80;99.90
33077;DHT22;38790;51.964;5.924;2022-11-15T00:08:14;6.80;99.90
33077;DHT22;38790;51.964;5.924;2022-11-15T00:10:41;6.80;99.90
33077;DHT22;38790;51.964;5.924;2022-11-15T00:13:11;6.90;99.90
33077;DHT22;38790;51.964;5.924;2022-11-15T00:15:39;6.80;99.90
33077;DHT22;38790;51.964;5.924;2022-11-15T00:18:06;6.80;99.90
33077;DHT22;38790;51.964;5.924;2022-11-15T00:20:35;6.80;99.90
33077;DHT22;38790;51.964;5.924;2022-11-15T00:23:03;6.90;99.90
33077;DHT22;38790;51.964;5.924;2022-11-15T00:25:30;6.90;99.90
33077;DHT22;38790;51.964;5.924;2022-11-15T00:27:57;6.90;99.90
33077;DHT22;38790;51.964;5.924;2022-11-15T00:30:27;6.90;99.90
33077;DHT22;38790;51.964;5.924;2022-11-15T00:32:54;6.90;99.90
33077;DHT22;38790;51.964;5.924;2022-11-15T00:35:20;6.90;99.90
33077;DHT22;38790;51.964;5.924;2022-11-15T00:37:49;6.90;99.90
33077;DHT22;38790;51.964;5.924;2022-11-15T00:40:15;6.90;99.90
33077;DHT22;38790;51.964;5.924;2022-11-15T00:42:42;6.90;99.90
33077;DHT22;38790;51.964;5.924;2022-11-15T00:45:08;6.90;99.90
33077;DHT22;38790;51.964;5.924;2022-11-15T00:47:35;6.90;99.90
33077;DHT22;38790;51.964;5.924;2022-11-15T00:50:01;6.90;99.90
33077;DHT22;38790;51.964;5.924;2022-11-15T00:52:27;6.90;99.90
33077;DHT22;38790;51.964;5.924;2022-11-15T00:54:53;6.90;99.90
33077;DHT22;38790;51.964;5.924;2022-11-15T00:57:19;6.90;99.90
33077;DHT22;38790;51.964;5.924;2022-11-15T00:59:45;6.90;99.90
33077;DHT22;38790;51.964;5.924;2022-11-15T01:02:11;6.90;99.90
33077;DHT22;38790;51.964;5.924;2022-11-15T01:04:38;6.90;99.90
33077;DHT22;38790;51.964;5.924;2022-11-15T01:07:04;6.90;99.90
33077;DHT22;38790;51.964;5.924;2022-11-15T01:09:30;7.00;99.90
33077;DHT22;38790;51.964;5.924;2022-11-15T01:11:56;7.00;99.90
33077;DHT22;38790;51.964;5.924;2022-11-15T01:14:22;6.90;99.90
33077;DHT22;38790;51.964;5.924;2022-11-15T01:16:48;7.00;99.90
33077;DHT22;38790;51.964;5.924;2022-11-15T01:19:14;7.00;99.90
33077;DHT22;38790;51.964;5.924;2022-11-15T01:21:40;7.00;99.90
33077;DHT22;38790;51.964;5.924;2022-11-15T01:24:07;7.10;99.90
33077;DHT22;38790;51.964;5.924;2022-11-15T01:26:34;7.10;99.90
33077;DHT22;38790;51.964;5.924;2022-11-15T01:29:00;7.10;99.90
33077;DHT22;38790;51.964;5.924;2022-11-15T01:31:26;7.10;99.90
33077;DHT22;38790;51.964;5.924;2022-11-15T01:33:52;7.20;99.90
33077;DHT22;38790;51.964;5.924;2022-11-15T01:36:20;7.20;99.90
33077;DHT22;38790;51.964;5.924;2022-11-15T01:38:54;7.20;99.90
33077;DHT22;38790;51.964;5.924;2022-11-15T01:41:23;7.20;99.90
33077;DHT22;38790;51.964;5.924;2022-11-15T01:43:56;7.20;99.90
33077;DHT22;38790;51.964;5.924;2022-11-15T01:48:58;7.30;99.90
33077;DHT22;38790;51.964;5.924;2022-11-15T01:51:31;7.30;99.90
33077;DHT22;38790;51.964;5.924;2022-11-15T01:54:08;7.30;99.90
33077;DHT22;38790;51.964;5.924;2022-11-15T01:56:45;7.30;99.90
33077;DHT22;38790;51.964;5.924;2022-11-15T01:59:12;7.40;99.90
33077;DHT22;38790;51.964;5.924;2022-11-15T02:01:38;7.40;99.90
33077;DHT22;38790;51.964;5.924;2022-11-15T02:04:16;7.40;99.90
33077;DHT22;38790;51.964;5.924;2022-11-15T02:06:43;7.50;99.90
33077;DHT22;38790;51.964;5.924;2022-11-15T02:09:10;7.50;99.90
33077;DHT22;38790;51.964;5.924;2022-11-15T02:11:37;7.50;99.90
33077;DHT22;38790;51.964;5.924;2022-11-15T02:14:04;7.60;99.90
33077;DHT22;38790;51.964;5.924;2022-11-15T02:28:00;7.60;99.90
33077;DHT22;38790;51.964;5.924;2022-11-15T02:39:15;7.70;99.90
33077;DHT22;38790;51.964;5.924;2022-11-15T02:45:15;7.80;99.90
33077;DHT22;38790;51.964;5.924;2022-11-15T02:47:44;7.80;99.90
33077;DHT22;38790;51.964;5.924;2022-11-15T02:50:15;7.80;99.90
33077;DHT22;38790;51.964;5.924;2022-11-15T02:52:45;7.80;99.90
33077;DHT22;38790;51.964;5.924;2022-11-15T02:55:37;7.90;99.90
33077;DHT22;38790;51.964;5.924;2022-11-15T03:01:00;8.00;99.90
33077;DHT22;38790;51.964;5.924;2022-11-15T03:11:38;8.20;99.90
33077;DHT22;38790;51.964;5.924;2022-11-15T03:14:25;8.20;99.90
33077;DHT22;38790;51.964;5.924;2022-11-15T03:19:47;8.20;99.90
33077;DHT22;38790;51.964;5.924;2022-11-15T03:22:17;8.20;99.90
33077;DHT22;38790;51.964;5.924;2022-11-15T03:24:47;8.30;99.90
33077;DHT22;38790;51.964;5.924;2022-11-15T03:27:21;8.30;99.90
33077;DHT22;38790;51.964;5.924;2022-11-15T03:29:53;8.40;99.90
33077;DHT22;38790;51.964;5.924;2022-11-15T03:32:24;8.40;99.90
33077;DHT22;38790;51.964;5.924;2022-11-15T03:35:11;8.40;99.90
33077;DHT22;38790;51.964;5.924;2022-11-15T03:38:07;8.40;99.90
33077;DHT22;38790;51.964;5.924;2022-11-15T03:40:42;8.50;99.90
33077;DHT22;38790;51.964;5.924;2022-11-15T03:46:16;8.50;99.90
33077;DHT22;38790;51.964;5.924;2022-11-15T03:49:00;8.60;99.90
33077;DHT22;38790;51.964;5.924;2022-11-15T03:51:30;8.60;99.90
33077;DHT22;38790;51.964;5.924;2022-11-15T03:53:56;8.60;99.90
33077;DHT22;38790;51.964;5.924;2022-11-15T03:56:22;8.70;99.90
33077;DHT22;38790;51.964;5.924;2022-11-15T03:58:48;8.70;99.90
33077;DHT22;38790;51.964;5.924;2022-11-15T04:01:14;8.70;99.90
33077;DHT22;38790;51.964;5.924;2022-11-15T04:03:40;8.70;99.90
33077;DHT22;38790;51.964;5.924;2022-11-15T04:06:07;8.70;99.90
33077;DHT22;38790;51.964;5.924;2022-11-15T04:08:33;8.70;99.90
33077;DHT22;38790;51.964;5.924;2022-11-15T04:10:59;8.70;99.90
33077;DHT22;38790;51.964;5.924;2022-11-15T04:13:25;8.70;99.90
33077;DHT22;38790;51.964;5.924;2022-11-15T04:15:51;8.80;99.90
33077;DHT22;38790;51.964;5.924;2022-11-15T04:18:17;8.90;99.90
33077;DHT22;38790;51.964;5.924;2022-11-15T04:20:43;8.90;99.90
33077;DHT22;38790;51.964;5.924;2022-11-15T04:23:28;9.00;99.90
33077;DHT22;38790;51.964;5.924;2022-11-15T04:26:15;9.10;99.90
33077;DHT22;38790;51.964;5.924;2022-11-15T04:28:42;9.10;99.90
33077;DHT22;38790;51.964;5.924;2022-11-15T04:31:27;9.20;99.90
33077;DHT22;38790;51.964;5.924;2022-11-15T04:33:53;9.20;99.90
33077;DHT22;38790;51.964;5.924;2022-11-15T04:36:20;9.20;99.90
33077;DHT22;38790;51.964;5.924;2022-11-15T04:39:05;9.30;99.90
33077;DHT22;38790;51.964;5.924;2022-11-15T04:41:31;9.30;99.90
33077;DHT22;38790;51.964;5.924;2022-11-15T04:43:57;9.30;99.90
33077;DHT22;38790;51.964;5.924;2022-11-15T04:46:24;9.30;99.90
33077;DHT22;38790;51.964;5.924;2022-11-15T04:48:51;9.30;99.90
33077;DHT22;38790;51.964;5.924;2022-11-15T04:51:18;9.30;99.90
33077;DHT22;38790;51.964;5.924;2022-11-15T04:53:44;9.40;99.90
33077;DHT22;38790;51.964;5.924;2022-11-15T04:56:10;9.40;99.90
33077;DHT22;38790;51.964;5.924;2022-11-15T04:58:36;9.30;99.90
33077;DHT22;38790;51.964;5.924;2022-11-15T05:01:09;9.30;99.90
33077;DHT22;38790;51.964;5.924;2022-11-15T05:03:35;9.30;99.90
33077;DHT22;38790;51.964;5.924;2022-11-15T05:06:20;9.40;99.90
33077;DHT22;38790;51.964;5.924;2022-11-15T05:08:46;9.40;99.90
33077;DHT22;38790;51.964;5.924;2022-11-15T05:11:12;9.40;99.90
33077;DHT22;38790;51.964;5.924;2022-11-15T05:13:38;9.30;99.90
33077;DHT22;38790;51.964;5.924;2022-11-15T05:16:05;9.30;99.90
33077;DHT22;38790;51.964;5.924;2022-11-15T05:18:31;9.30;99.90
33077;DHT22;38790;51.964;5.924;2022-11-15T05:21:10;9.20;99.90
33077;DHT22;38790;51.964;5.924;2022-11-15T05:23:36;9.30;99.90
33077;DHT22;38790;51.964;5.924;2022-11-15T05:26:04;9.30;99.90
33077;DHT22;38790;51.964;5.924;2022-11-15T05:28:32;9.30;99.90
33077;DHT22;38790;51.964;5.924;2022-11-15T05:31:06;9.30;99.90
33077;DHT22;38790;51.964;5.924;2022-11-15T05:33:37;9.30;99.90
33077;DHT22;38790;51.964;5.924;2022-11-15T05:36:12;9.30;99.90
33077;DHT22;38790;51.964;5.924;2022-11-15T05:38:43;9.40;99.90
33077;DHT22;38790;51.964;5.924;2022-11-15T05:41:13;9.40;99.90
33077;DHT22;38790;51.964;5.924;2022-11-15T05:43:41;9.40;99.90
33077;DHT22;38790;51.964;5.924;2022-11-15T05:46:08;9.40;99.90
33077;DHT22;38790;51.964;5.924;2022-11-15T05:48:35;9.50;99.90
33077;DHT22;38790;51.964;5.924;2022-11-15T05:51:04;9.40;99.90
33077;DHT22;38790;51.964;5.924;2022-11-15T05:53:31;9.40;99.90
33077;DHT22;38790;51.964;5.924;2022-11-15T05:55:57;9.40;99.90
33077;DHT22;38790;51.964;5.924;2022-11-15T05:58:24;9.50;99.90
33077;DHT22;38790;51.964;5.924;2022-11-15T06:00:50;9.50;99.90
33077;DHT22;38790;51.964;5.924;2022-11-15T06:03:16;9.50;99.90
33077;DHT22;38790;51.964;5.924;2022-11-15T06:05:42;9.50;99.90
33077;DHT22;38790;51.964;5.924;2022-11-15T06:08:09;9.50;99.90
33077;DHT22;38790;51.964;5.924;2022-11-15T06:10:44;9.40;99.90
33077;DHT22;38790;51.964;5.924;2022-11-15T06:13:10;9.40;99.90
33077;DHT22;38790;51.964;5.924;2022-11-15T06:15:36;9.40;99.90
33077;DHT22;38790;51.964;5.924;2022-11-15T06:18:02;9.50;99.90
33077;DHT22;38790;51.964;5.924;2022-11-15T06:20:29;9.50;99.90
33077;DHT22;38790;51.964;5.924;2022-11-15T06:23:03;9.60;99.90
33077;DHT22;38790;51.964;5.924;2022-11-15T06:25:30;9.60;99.90
33077;DHT22;38790;51.964;5.924;2022-11-15T06:27:58;9.60;99.90
33077;DHT22;38790;51.964;5.924;2022-11-15T06:30:25;9.60;99.90
33077;DHT22;38790;51.964;5.924;2022-11-15T06:32:57;9.60;99.90
33077;DHT22;38790;51.964;5.924;2022-11-15T06:35:24;9.60;99.90
33077;DHT22;38790;51.964;5.924;2022-11-15T06:37:50;9.50;99.90
33077;DHT22;38790;51.964;5.924;2022-11-15T06:40:16;9.50;99.90
33077;DHT22;38790;51.964;5.924;2022-11-15T06:42:42;9.40;99.90
33077;DHT22;38790;51.964;5.924;2022-11-15T06:45:08;9.50;99.90
33077;DHT22;38790;51.964;5.924;2022-11-15T06:47:35;9.50;99.90
33077;DHT22;38790;51.964;5.924;2022-11-15T06:50:01;9.50;99.90
33077;DHT22;38790;51.964;5.924;2022-11-15T06:52:27;9.50;99.90
33077;DHT22;38790;51.964;5.924;2022-11-15T06:54:58;9.50;99.90
33077;DHT22;38790;51.964;5.924;2022-11-15T06:57:24;9.50;99.90
33077;DHT22;38790;51.964;5.924;2022-11-15T06:59:50;9.50;99.90
33077;DHT22;38790;51.964;5.924;2022-11-15T07:02:16;9.60;99.90
33077;DHT22;38790;51.964;5.924;2022-11-15T07:04:42;9.60;99.90
33077;DHT22;38790;51.964;5.924;2022-11-15T07:07:09;9.60;99.90
33077;DHT22;38790;51.964;5.924;2022-11-15T07:09:35;9.60;99.90
33077;DHT22;38790;51.964;5.924;2022-11-15T07:12:02;9.60;99.90
33077;DHT22;38790;51.964;5.924;2022-11-15T07:14:28;9.60;99.90
33077;DHT22;38790;51.964;5.924;2022-11-15T07:16:54;9.60;99.90
33077;DHT22;38790;51.964;5.924;2022-11-15T07:19:20;9.60;99.90
33077;DHT22;38790;51.964;5.924;2022-11-15T07:21:46;9.60;99.90
33077;DHT22;38790;51.964;5.924;2022-11-15T07:24:12;9.60;99.90
33077;DHT22;38790;51.964;5.924;2022-11-15T07:26:38;9.50;99.90
33077;DHT22;38790;51.964;5.924;2022-11-15T07:29:04;9.50;99.90
33077;DHT22;38790;51.964;5.924;2022-11-15T07:31:31;9.50;99.90
33077;DHT22;38790;51.964;5.924;2022-11-15T07:33:57;9.50;99.90
33077;DHT22;38790;51.964;5.924;2022-11-15T07:36:23;9.50;99.90
33077;DHT22;38790;51.964;5.924;2022-11-15T07:38:49;9.60;99.90
33077;DHT22;38790;51.964;5.924;2022-11-15T07:41:16;9.60;99.90
33077;DHT22;38790;51.964;5.924;2022-11-15T07:43:42;9.60;99.90
33077;DHT22;38790;51.964;5.924;2022-11-15T07:46:09;9.60;99.90
33077;DHT22;38790;51.964;5.924;2022-11-15T07:48:38;9.70;99.90
33077;DHT22;38790;51.964;5.924;2022-11-15T07:51:06;9.70;99.90
33077;DHT22;38790;51.964;5.924;2022-11-15T07:53:33;9.70;99.90
33077;DHT22;38790;51.964;5.924;2022-11-15T07:55:59;9.70;99.90
33077;DHT22;38790;51.964;5.924;2022-11-15T07:58:25;9.70;99.90
33077;DHT22;38790;51.964;5.924;2022-11-15T08:00:51;9.70;99.90
33077;DHT22;38790;51.964;5.924;2022-11-15T08:03:17;9.70;99.90
33077;DHT22;38790;51.964;5.924;2022-11-15T08:05:50;9.80;99.90
33077;DHT22;38790;51.964;5.924;2022-11-15T08:08:16;9.80;99.90
33077;DHT22;38790;51.964;5.924;2022-11-15T08:10:43;9.80;99.90
33077;DHT22;38790;51.964;5.924;2022-11-15T08:13:10;9.80;99.90
33077;DHT22;38790;51.964;5.924;2022-11-15T08:15:37;9.80;99.90
33077;DHT22;38790;51.964;5.924;2022-11-15T08:18:06;9.90;99.90
33077;DHT22;38790;51.964;5.924;2022-11-15T08:20:32;10.00;99.90
33077;DHT22;38790;51.964;5.924;2022-11-15T08:23:01;10.00;99.90
33077;DHT22;38790;51.964;5.924;2022-11-15T08:25:29;10.10;99.90
33077;DHT22;38790;51.964;5.924;2022-11-15T08:27:58;10.10;99.90
33077;DHT22;38790;51.964;5.924;2022-11-15T08:30:25;10.20;99.90
33077;DHT22;38790;51.964;5.924;2022-11-15T08:32:52;10.20;99.90
33077;DHT22;38790;51.964;5.924;2022-11-15T08:35:20;10.20;99.90
33077;DHT22;38790;51.964;5.924;2022-11-15T08:37:47;10.20;99.90
33077;DHT22;38790;51.964;5.924;2022-11-15T08:40:13;10.30;99.90
33077;DHT22;38790;51.964;5.924;2022-11-15T08:42:40;10.30;99.90
33077;DHT22;38790;51.964;5.924;2022-11-15T08:45:07;10.40;99.90
33077;DHT22;38790;51.964;5.924;2022-11-15T08:47:34;10.50;99.90
33077;DHT22;38790;51.964;5.924;2022-11-15T08:50:00;10.50;99.90
33077;DHT22;38790;51.964;5.924;2022-11-15T08:52:27;10.50;99.90
33077;DHT22;38790;51.964;5.924;2022-11-15T08:54:53;10.60;99.90
33077;DHT22;38790;51.964;5.924;2022-11-15T08:57:19;10.60;99.90
33077;DHT22;38790;51.964;5.924;2022-11-15T08:59:45;10.70;99.90
33077;DHT22;38790;51.964;5.924;2022-11-15T09:02:13;10.80;99.90
33077;DHT22;38790;51.964;5.924;2022-11-15T09:04:41;10.80;99.90
33077;DHT22;38790;51.964;5.924;2022-11-15T09:07:09;10.90;99.90
33077;DHT22;38790;51.964;5.924;2022-11-15T09:09:36;10.90;99.90
33077;DHT22;38790;51.964;5.924;2022-11-15T09:12:03;10.90;99.90
33077;DHT22;38790;51.964;5.924;2022-11-15T09:14:29;10.90;99.90
33077;DHT22;38790;51.964;5.924;2022-11-15T09:16:55;10.80;99.90
33077;DHT22;38790;51.964;5.924;2022-11-15T09:19:22;10.80;99.90
33077;DHT22;38790;51.964;5.924;2022-11-15T09:21:48;10.80;99.90
33077;DHT22;38790;51.964;5.924;2022-11-15T09:24:14;10.80;99.90
33077;DHT22;38790;51.964;5.924;2022-11-15T09:26:41;10.80;99.90
33077;DHT22;38790;51.964;5.924;2022-11-15T09:29:09;10.80;99.90
33077;DHT22;38790;51.964;5.924;2022-11-15T09:31:35;10.80;99.90
33077;DHT22;38790;51.964;5.924;2022-11-15T09:34:02;10.80;99.90
33077;DHT22;38790;51.964;5.924;2022-11-15T09:36:28;10.80;99.90
33077;DHT22;38790;51.964;5.924;2022-11-15T09:38:54;10.90;99.90
33077;DHT22;38790;51.964;5.924;2022-11-15T09:49:32;11.10;99.90
33077;DHT22;38790;51.964;5.924;2022-11-15T09:51:59;11.10;99.90
33077;DHT22;38790;51.964;5.924;2022-11-15T09:54:34;11.00;99.90
33077;DHT22;38790;51.964;5.924;2022-11-15T09:57:13;11.10;99.90
33077;DHT22;38790;51.964;5.924;2022-11-15T10:05:24;11.80;99.90
33077;DHT22;38790;51.964;5.924;2022-11-15T10:13:06;11.70;99.90
33077;DHT22;38790;51.964;5.924;2022-11-15T10:15:34;11.90;99.90
33077;DHT22;38790;51.964;5.924;2022-11-15T10:21:20;12.10;99.90
33077;DHT22;38790;51.964;5.924;2022-11-15T10:23:47;11.80;99.90
33077;DHT22;38790;51.964;5.924;2022-11-15T10:26:16;11.80;99.90
33077;DHT22;38790;51.964;5.924;2022-11-15T10:28:42;11.80;99.90
33077;DHT22;38790;51.964;5.924;2022-11-15T10:31:23;11.80;99.90
33077;DHT22;38790;51.964;5.924;2022-11-15T10:33:49;11.80;99.90
33077;DHT22;38790;51.964;5.924;2022-11-15T10:36:19;11.80;99.90
33077;DHT22;38790;51.964;5.924;2022-11-15T10:41:16;12.20;99.90
33077;DHT22;38790;51.964;5.924;2022-11-15T10:43:43;12.30;99.90
33077;DHT22;38790;51.964;5.924;2022-11-15T10:46:20;12.30;99.90
33077;DHT22;38790;51.964;5.924;2022-11-15T10:48:47;12.30;99.90
33077;DHT22;38790;51.964;5.924;2022-11-15T10:51:25;12.30;99.90
33077;DHT22;38790;51.964;5.924;2022-11-15T10:53:57;12.30;99.90
33077;DHT22;38790;51.964;5.924;2022-11-15T10:56:25;12.30;99.90
33077;DHT22;38790;51.964;5.924;2022-11-15T10:58:58;12.30;99.90
33077;DHT22;38790;51.964;5.924;2022-11-15T11:01:26;12.30;99.90
33077;DHT22;38790;51.964;5.924;2022-11-15T11:04:07;12.40;99.90
33077;DHT22;38790;51.964;5.924;2022-11-15T11:09:34;12.10;99.90
33077;DHT22;38790;51.964;5.924;2022-11-15T11:12:03;12.00;99.90
33077;DHT22;38790;51.964;5.924;2022-11-15T11:14:37;11.90;99.90
33077;DHT22;38790;51.964;5.924;2022-11-15T11:22:30;12.10;99.90
33077;DHT22;38790;51.964;5.924;2022-11-15T11:25:08;12.20;99.90
33077;DHT22;38790;51.964;5.924;2022-11-15T11:33:24;12.40;99.90
33077;DHT22;38790;51.964;5.924;2022-11-15T11:38:58;12.60;99.90
33077;DHT22;38790;51.964;5.924;2022-11-15T11:44:28;12.50;99.90
33077;DHT22;38790;51.964;5.924;2022-11-15T11:46:56;12.50;99.90
33077;DHT22;38790;51.964;5.924;2022-11-15T11:52:31;12.60;99.90
33077;DHT22;38790;51.964;5.924;2022-11-15T11:55:01;12.60;99.90
33077;DHT22;38790;51.964;5.924;2022-11-15T11:57:47;12.50;99.90
33077;DHT22;38790;51.964;5.924;2022-11-15T12:00:19;12.50;99.90
33077;DHT22;38790;51.964;5.924;2022-11-15T12:05:40;12.20;99.90
33077;DHT22;38790;51.964;5.924;2022-11-15T12:11:12;12.30;99.90
33077;DHT22;38790;51.964;5.924;2022-11-15T12:13:42;12.30;99.90
33077;DHT22;38790;51.964;5.924;2022-11-15T12:16:14;12.10;99.90
33077;DHT22;38790;51.964;5.924;2022-11-15T12:18:49;12.20;99.90
33077;DHT22;38790;51.964;5.924;2022-11-15T12:24:39;12.20;99.90
33077;DHT22;38790;51.964;5.924;2022-11-15T12:27:13;12.20;99.90
33077;DHT22;38790;51.964;5.924;2022-11-15T12:29:44;12.20;99.90
33077;DHT22;38790;51.964;5.924;2022-11-15T12:32:34;12.20;99.90
33077;DHT22;38790;51.964;5.924;2022-11-15T12:35:03;12.20;99.90
33077;DHT22;38790;51.964;5.924;2022-11-15T12:42:53;12.10;99.90
33077;DHT22;38790;51.964;5.924;2022-11-15T12:45:27;12.20;99.90
33077;DHT22;38790;51.964;5.924;2022-11-15T12:47:53;12.20;99.90
33077;DHT22;38790;51.964;5.924;2022-11-15T12:50:59;12.20;99.90
33077;DHT22;38790;51.964;5.924;2022-11-15T12:53:30;12.10;99.90
33077;DHT22;38790;51.964;5.924;2022-11-15T12:58:42;12.20;99.90
33077;DHT22;38790;51.964;5.924;2022-11-15T13:06:53;12.20;99.90
33077;DHT22;38790;51.964;5.924;2022-11-15T13:12:11;12.20;99.90
33077;DHT22;38790;51.964;5.924;2022-11-15T13:14:58;12.20;99.90
33077;DHT22;38790;51.964;5.924;2022-11-15T13:17:36;12.20;99.90
33077;DHT22;38790;51.964;5.924;2022-11-15T13:33:30;12.10;99.90
33077;DHT22;38790;51.964;5.924;2022-11-15T13:36:15;12.10;99.90
33077;DHT22;38790;51.964;5.924;2022-11-15T13:38:43;12.10;99.90
33077;DHT22;38790;51.964;5.924;2022-11-15T13:41:31;12.10;99.90
33077;DHT22;38790;51.964;5.924;2022-11-15T13:44:01;12.00;99.90
33077;DHT22;38790;51.964;5.924;2022-11-15T13:46:29;12.00;99.90
33077;DHT22;38790;51.964;5.924;2022-11-15T13:48:58;11.90;99.90
33077;DHT22;38790;51.964;5.924;2022-11-15T13:51:30;11.90;99.90
33077;DHT22;38790;51.964;5.924;2022-11-15T13:54:12;11.90;99.90
33077;DHT22;38790;51.964;5.924;2022-11-15T13:56:44;11.90;99.90
33077;DHT22;38790;51.964;5.924;2022-11-15T13:59:20;11.90;99.90
33077;DHT22;38790;51.964;5.924;2022-11-15T14:01:50;11.90;99.90
33077;DHT22;38790;51.964;5.924;2022-11-15T14:04:21;12.00;99.90
33077;DHT22;38790;51.964;5.924;2022-11-15T14:06:52;11.90;99.90
33077;DHT22;38790;51.964;5.924;2022-11-15T14:09:34;11.90;99.90
33077;DHT22;38790;51.964;5.924;2022-11-15T14:12:19;11.90;99.90
33077;DHT22;38790;51.964;5.924;2022-11-15T14:14:47;11.80;99.90
33077;DHT22;38790;51.964;5.924;2022-11-15T14:19:54;11.70;99.90
33077;DHT22;38790;51.964;5.924;2022-11-15T14:22:24;11.60;99.90
33077;DHT22;38790;51.964;5.924;2022-11-15T14:25:19;11.60;99.90
33077;DHT22;38790;51.964;5.924;2022-11-15T14:30:34;11.60;99.90
33077;DHT22;38790;51.964;5.924;2022-11-15T14:33:00;11.60;99.90
33077;DHT22;38790;51.964;5.924;2022-11-15T14:35:27;11.70;99.90
33077;DHT22;38790;51.964;5.924;2022-11-15T14:37:53;11.60;99.90
33077;DHT22;38790;51.964;5.924;2022-11-15T14:40:21;11.60;99.90
33077;DHT22;38790;51.964;5.924;2022-11-15T14:42:49;11.70;99.90
33077;DHT22;38790;51.964;5.924;2022-11-15T14:45:20;11.70;99.90
33077;DHT22;38790;51.964;5.924;2022-11-15T14:47:47;11.70;99.90
33077;DHT22;38790;51.964;5.924;2022-11-15T14:50:19;11.70;99.90
33077;DHT22;38790;51.964;5.924;2022-11-15T14:52:46;11.70;99.90
33077;DHT22;38790;51.964;5.924;2022-11-15T14:55:26;11.70;99.90
33077;DHT22;38790;51.964;5.924;2022-11-15T14:57:57;11.60;99.90
33077;DHT22;38790;51.964;5.924;2022-11-15T15:00:24;11.60;99.90
33077;DHT22;38790;51.964;5.924;2022-11-15T15:02:52;11.60;99.90
33077;DHT22;38790;51.964;5.924;2022-11-15T15:05:34;11.60;99.90
33077;DHT22;38790;51.964;5.924;2022-11-15T15:08:01;11.50;99.90
33077;DHT22;38790;51.964;5.924;2022-11-15T15:10:32;11.50;99.90
33077;DHT22;38790;51.964;5.924;2022-11-15T15:12:59;11.50;99.90
33077;DHT22;38790;51.964;5.924;2022-11-15T15:15:29;11.50;99.90
33077;DHT22;38790;51.964;5.924;2022-11-15T15:17:57;11.40;99.90
33077;DHT22;38790;51.964;5.924;2022-11-15T15:20:23;11.40;99.90
33077;DHT22;38790;51.964;5.924;2022-11-15T15:22:49;11.40;99.90
33077;DHT22;38790;51.964;5.924;2022-11-15T15:25:30;11.40;99.90
33077;DHT22;38790;51.964;5.924;2022-11-15T15:27:57;11.40;99.90
33077;DHT22;38790;51.964;5.924;2022-11-15T15:30:25;11.50;99.90
33077;DHT22;38790;51.964;5.924;2022-11-15T15:32:52;11.50;99.90
33077;DHT22;38790;51.964;5.924;2022-11-15T15:35:20;11.40;99.90
33077;DHT22;38790;51.964;5.924;2022-11-15T15:37:47;11.50;99.90
33077;DHT22;38790;51.964;5.924;2022-11-15T15:40:19;11.50;99.90
33077;DHT22;38790;51.964;5.924;2022-11-15T15:42:47;11.50;99.90
33077;DHT22;38790;51.964;5.924;2022-11-15T15:45:13;11.50;99.90
33077;DHT22;38790;51.964;5.924;2022-11-15T15:47:41;11.60;99.90
33077;DHT22;38790;51.964;5.924;2022-11-15T15:52:49;11.60;99.90
33077;DHT22;38790;51.964;5.924;2022-11-15T15:55:16;11.50;99.90
33077;DHT22;38790;51.964;5.924;2022-11-15T15:57:42;11.50;99.90
33077;DHT22;38790;51.964;5.924;2022-11-15T16:00:09;11.50;99.90
33077;DHT22;38790;51.964;5.924;2022-11-15T16:02:36;11.50;99.90
33077;DHT22;38790;51.964;5.924;2022-11-15T16:05:02;11.50;99.90
33077;DHT22;38790;51.964;5.924;2022-11-15T16:07:28;11.50;99.90
33077;DHT22;38790;51.964;5.924;2022-11-15T16:09:55;11.50;99.90
33077;DHT22;38790;51.964;5.924;2022-11-15T16:12:32;11.50;99.90
33077;DHT22;38790;51.964;5.924;2022-11-15T16:14:58;11.50;99.90
33077;DHT22;38790;51.964;5.924;2022-11-15T16:17:50;11.50;99.90
33077;DHT22;38790;51.964;5.924;2022-11-15T16:20:40;11.50;99.90
33077;DHT22;38790;51.964;5.924;2022-11-15T16:23:13;11.50;99.90
33077;DHT22;38790;51.964;5.924;2022-11-15T16:25:51;11.50;99.90
33077;DHT22;38790;51.964;5.924;2022-11-15T16:30:49;11.60;99.90
33077;DHT22;38790;51.964;5.924;2022-11-15T16:33:24;11.60;99.90
33077;DHT22;38790;51.964;5.924;2022-11-15T16:35:50;11.60;99.90
33077;DHT22;38790;51.964;5.924;2022-11-15T16:38:17;11.60;99.90
33077;DHT22;38790;51.964;5.924;2022-11-15T16:40:43;11.70;99.90
33077;DHT22;38790;51.964;5.924;2022-11-15T16:43:10;11.70;99.90
33077;DHT22;38790;51.964;5.924;2022-11-15T16:45:37;11.80;99.90
33077;DHT22;38790;51.964;5.924;2022-11-15T16:48:03;11.80;99.90
33077;DHT22;38790;51.964;5.924;2022-11-15T16:50:32;11.80;99.90
33077;DHT22;38790;51.964;5.924;2022-11-15T16:53:04;11.70;99.90
33077;DHT22;38790;51.964;5.924;2022-11-15T16:55:30;11.70;99.90
33077;DHT22;38790;51.964;5.924;2022-11-15T16:57:57;11.70;99.90
33077;DHT22;38790;51.964;5.924;2022-11-15T17:00:24;11.60;99.90
33077;DHT22;38790;51.964;5.924;2022-11-15T17:02:51;11.60;99.90
33077;DHT22;38790;51.964;5.924;2022-11-15T17:05:19;11.70;99.90
33077;DHT22;38790;51.964;5.924;2022-11-15T17:07:47;11.70;99.90
33077;DHT22;38790;51.964;5.924;2022-11-15T17:10:17;11.70;99.90
33077;DHT22;38790;51.964;5.924;2022-11-15T17:12:44;11.70;99.90
33077;DHT22;38790;51.964;5.924;2022-11-15T17:15:11;11.60;99.90
33077;DHT22;38790;51.964;5.924;2022-11-15T17:17:38;11.60;99.90
33077;DHT22;38790;51.964;5.924;2022-11-15T17:20:06;11.60;99.90
33077;DHT22;38790;51.964;5.924;2022-11-15T17:22:36;11.70;99.90
33077;DHT22;38790;51.964;5.924;2022-11-15T17:25:03;11.60;99.90
33077;DHT22;38790;51.964;5.924;2022-11-15T17:27:30;11.60;99.90
33077;DHT22;38790;51.964;5.924;2022-11-15T17:29:56;11.60;99.90
33077;DHT22;38790;51.964;5.924;2022-11-15T17:32:22;11.60;99.90
33077;DHT22;38790;51.964;5.924;2022-11-15T17:34:51;11.70;99.90
33077;DHT22;38790;51.964;5.924;2022-11-15T17:37:17;11.70;99.90
33077;DHT22;38790;51.964;5.924;2022-11-15T17:39:43;11.70;99.90
33077;DHT22;38790;51.964;5.924;2022-11-15T17:42:10;11.70;99.90
33077;DHT22;38790;51.964;5.924;2022-11-15T17:44:38;11.60;99.90
33077;DHT22;38790;51.964;5.924;2022-11-15T17:47:04;11.50;99.90
33077;DHT22;38790;51.964;5.924;2022-11-15T17:49:31;11.50;99.90
33077;DHT22;38790;51.964;5.924;2022-11-15T17:51:57;11.40;99.90
33077;DHT22;38790;51.964;5.924;2022-11-15T17:54:23;11.30;99.90
33077;DHT22;38790;51.964;5.924;2022-11-15T17:56:49;11.40;99.90
33077;DHT22;38790;51.964;5.924;2022-11-15T17:59:18;11.40;99.90
33077;DHT22;38790;51.964;5.924;2022-11-15T18:01:44;11.40;99.90
33077;DHT22;38790;51.964;5.924;2022-11-15T18:04:13;11.40;99.90
33077;DHT22;38790;51.964;5.924;2022-11-15T18:06:40;11.50;99.90
33077;DHT22;38790;51.964;5.924;2022-11-15T18:09:06;11.40;99.90
33077;DHT22;38790;51.964;5.924;2022-11-15T18:11:41;11.40;99.90